Time;durP1;ratioP1;P1;durP2;ratioP2;P2;SDS_P1;SDS_P2;PMS_P1;PMS_P2;Temp;Humidity;BMP_temperature;BMP_pressure;BME280_temperature;BME280_humidity;BME280_pressure;Samples;Min_cycle;Max_cycle;Signal;HPM_P1;HPM_P2
2023/10/29 00:02:07;;;;;;;6.75;3.85;;;11.40;99.90;;;;;;5077413;28;20146;-46
2023/10/29 00:04:35;;;;;;;4.57;3.67;;;11.40;99.90;;;;;;5074287;28;20048;-45
2023/10/29 00:07:04;;;;;;;5.75;4.13;;;11.40;99.90;;;;;;5069735;28;20483;-46
2023/10/29 00:09:31;;;;;;;4.85;3.75;;;11.40;99.90;;;;;;5074403;28;20038;-45
2023/10/29 00:11:57;;;;;;;5.88;4.00;;;11.40;99.90;;;;;;5073279;28;20412;-44
2023/10/29 00:14:23;;;;;;;4.10;3.70;;;11.40;99.90;;;;;;5071077;28;20444;-44
2023/10/29 00:16:48;;;;;;;4.82;3.65;;;11.40;99.90;;;;;;5071988;28;20044;-45
2023/10/29 00:19:14;;;;;;;4.50;3.28;;;11.40;99.90;;;;;;5071723;28;20489;-45
2023/10/29 00:21:39;;;;;;;3.35;3.05;;;11.40;99.90;;;;;;5074161;28;20064;-45
2023/10/29 00:24:06;;;;;;;5.00;3.40;;;11.40;99.90;;;;;;5074168;28;20052;-45
2023/10/29 00:26:31;;;;;;;3.83;3.10;;;11.50;99.90;;;;;;5077155;28;20052;-44
2023/10/29 00:28:57;;;;;;;3.40;3.10;;;11.50;99.90;;;;;;5080004;28;20040;-46
2023/10/29 00:31:23;;;;;;;3.33;2.88;;;11.50;99.90;;;;;;5082908;28;20536;-45
2023/10/29 00:33:49;;;;;;;3.75;2.97;;;11.50;99.90;;;;;;5071653;28;20079;-46
2023/10/29 00:36:15;;;;;;;2.92;2.72;;;11.60;99.90;;;;;;5073066;28;20044;-48
2023/10/29 00:38:40;;;;;;;4.18;3.00;;;11.50;99.90;;;;;;5074887;28;20062;-47
2023/10/29 00:41:06;;;;;;;3.67;2.22;;;11.60;99.90;;;;;;5074336;28;20051;-48
2023/10/29 00:43:40;;;;;;;2.97;2.67;;;11.60;99.90;;;;;;5079362;28;20028;-48
2023/10/29 00:46:08;;;;;;;2.85;2.65;;;11.60;99.90;;;;;;5079452;28;20040;-45
2023/10/29 00:48:34;;;;;;;3.57;2.37;;;11.70;99.90;;;;;;5071914;28;20044;-49
2023/10/29 00:51:01;;;;;;;3.75;2.70;;;11.80;99.90;;;;;;5075361;28;20497;-45
2023/10/29 00:53:28;;;;;;;2.80;2.50;;;11.70;99.90;;;;;;5072438;28;20052;-48
2023/10/29 00:55:54;;;;;;;5.05;2.42;;;11.80;99.90;;;;;;5070849;28;20076;-46
2023/10/29 00:58:20;;;;;;;4.60;2.50;;;11.80;99.90;;;;;;5074188;28;20127;-45
2023/10/29 01:00:46;;;;;;;2.70;2.50;;;11.80;99.90;;;;;;5074172;28;20143;-44
2023/10/29 01:03:11;;;;;;;5.43;2.58;;;11.80;99.90;;;;;;5073607;28;20404;-44
2023/10/29 01:05:38;;;;;;;4.43;2.22;;;11.80;99.90;;;;;;5072084;28;20392;-46
2023/10/29 01:08:05;;;;;;;2.60;2.15;;;11.90;99.90;;;;;;5075712;28;20516;-46
2023/10/29 01:10:34;;;;;;;5.47;2.40;;;11.90;99.90;;;;;;5078653;28;20036;-45
2023/10/29 01:13:00;;;;;;;4.05;2.10;;;11.90;99.90;;;;;;5081905;28;20147;-46
2023/10/29 01:15:25;;;;;;;3.17;2.25;;;12.00;99.90;;;;;;5080097;28;20136;-45
2023/10/29 01:17:51;;;;;;;4.65;2.35;;;12.00;99.90;;;;;;5079266;28;20039;-46
2023/10/29 01:20:17;;;;;;;4.18;2.40;;;12.00;99.90;;;;;;5082611;28;20055;-46
2023/10/29 01:22:44;;;;;;;3.28;2.10;;;12.10;99.90;;;;;;5080256;28;20032;-46
2023/10/29 01:25:10;;;;;;;5.50;2.50;;;12.10;99.90;;;;;;5076670;28;20080;-46
2023/10/29 01:27:37;;;;;;;3.92;2.63;;;12.10;99.90;;;;;;5077081;28;20044;-46
2023/10/29 01:30:05;;;;;;;4.05;2.65;;;12.10;99.90;;;;;;5078332;28;20122;-45
2023/10/29 01:32:31;;;;;;;3.70;2.28;;;12.10;99.90;;;;;;5079035;28;20440;-46
2023/10/29 01:34:57;;;;;;;3.88;2.45;;;12.10;99.90;;;;;;5075082;28;20052;-45
2023/10/29 01:37:23;;;;;;;5.13;2.22;;;12.20;99.90;;;;;;5077502;28;20044;-45
2023/10/29 01:39:48;;;;;;;3.50;2.10;;;12.10;99.90;;;;;;5075944;28;20551;-46
2023/10/29 01:42:14;;;;;;;3.50;2.40;;;12.30;99.90;;;;;;5076421;28;20077;-45
2023/10/29 01:44:40;;;;;;;4.60;2.20;;;12.30;99.90;;;;;;5076648;28;20082;-45
2023/10/29 01:47:05;;;;;;;2.88;2.10;;;12.20;99.90;;;;;;5075168;28;20131;-46
2023/10/29 01:49:31;;;;;;;4.82;2.25;;;12.20;99.90;;;;;;5080417;28;20501;-45
2023/10/29 01:51:57;;;;;;;3.97;2.10;;;11.90;99.90;;;;;;5079787;28;20059;-47
2023/10/29 01:54:23;;;;;;;4.53;2.15;;;12.10;99.90;;;;;;5080289;28;20044;-45
2023/10/29 01:56:48;;;;;;;3.65;1.80;;;12.30;99.90;;;;;;5075372;28;20097;-45
2023/10/29 01:59:15;;;;;;;2.80;1.95;;;12.30;99.90;;;;;;5082399;28;20119;-45
2023/10/29 02:01:41;;;;;;;4.28;1.95;;;12.30;99.90;;;;;;5073982;28;20460;-45
2023/10/29 02:04:11;;;;;;;2.92;1.67;;;12.30;99.90;;;;;;5077291;28;20047;-49
2023/10/29 02:06:39;;;;;;;2.80;1.90;;;12.30;99.90;;;;;;5075835;28;20040;-46
2023/10/29 02:09:12;;;;;;;4.22;2.00;;;;;;;;;;5077912;28;20146;-48
2023/10/29 02:11:39;;;;;;;3.80;1.83;;;12.30;99.90;;;;;;5077780;28;20040;-48
2023/10/29 02:14:06;;;;;;;4.80;2.00;;;12.40;99.90;;;;;;5077976;28;20572;-46
2023/10/29 02:16:31;;;;;;;3.45;1.60;;;12.30;99.90;;;;;;5079617;28;20048;-46
2023/10/29 02:18:58;;;;;;;3.90;1.75;;;12.40;99.90;;;;;;5075695;28;20044;-44
2023/10/29 02:21:24;;;;;;;3.13;1.70;;;12.40;99.90;;;;;;5078481;28;20093;-46
2023/10/29 02:23:54;;;;;;;2.60;1.60;;;12.30;99.90;;;;;;5084945;28;20052;-46
2023/10/29 02:26:23;;;;;;;4.00;1.80;;;12.30;99.90;;;;;;5077885;28;20060;-44
2023/10/29 02:28:49;;;;;;;3.33;1.60;;;12.40;99.90;;;;;;5075045;28;20056;-47
2023/10/29 02:31:19;;;;;;;2.50;1.70;;;12.40;99.90;;;;;;5078472;28;20486;-46
2023/10/29 02:33:44;;;;;;;2.95;1.80;;;12.40;99.90;;;;;;5076473;28;20037;-46
2023/10/29 02:36:10;;;;;;;2.45;1.60;;;12.40;99.90;;;;;;5072132;28;20056;-45
2023/10/29 02:38:37;;;;;;;2.60;1.50;;;12.40;99.90;;;;;;5071798;28;20072;-45
2023/10/29 02:41:06;;;;;;;2.42;1.45;;;12.50;99.90;;;;;;5081487;28;20127;-46
2023/10/29 02:43:32;;;;;;;2.22;1.50;;;12.50;99.90;;;;;;5073524;28;20028;-45
2023/10/29 02:45:58;;;;;;;1.63;1.30;;;12.40;99.90;;;;;;5081569;28;20036;-46
2023/10/29 02:48:25;;;;;;;4.68;1.63;;;12.40;99.90;;;;;;5076116;28;20086;-45
2023/10/29 02:50:51;;;;;;;2.67;1.50;;;12.40;99.90;;;;;;5076894;28;20123;-45
2023/10/29 02:53:17;;;;;;;2.55;1.60;;;12.40;99.90;;;;;;5074029;28;20353;-46
2023/10/29 02:55:43;;;;;;;2.58;2.00;;;12.40;99.90;;;;;;5074821;28;20054;-44
2023/10/29 02:58:08;;;;;;;5.47;1.63;;;12.50;99.90;;;;;;5077060;28;20051;-46
2023/10/29 03:00:34;;;;;;;4.63;1.80;;;12.50;99.90;;;;;;5075445;28;20041;-47
2023/10/29 03:03:00;;;;;;;2.33;1.38;;;12.50;99.90;;;;;;5072557;28;20040;-46
2023/10/29 03:05:25;;;;;;;3.03;1.77;;;12.50;99.90;;;;;;5075478;28;20044;-46
2023/10/29 03:07:51;;;;;;;3.45;1.60;;;12.60;99.90;;;;;;5078375;28;20032;-48
2023/10/29 03:10:16;;;;;;;2.47;1.52;;;12.60;99.90;;;;;;5074627;28;20090;-45
2023/10/29 03:12:42;;;;;;;3.67;1.85;;;12.60;99.90;;;;;;5081983;28;20050;-46
2023/10/29 03:15:08;;;;;;;3.88;1.50;;;12.70;99.90;;;;;;5071207;28;20048;-50
2023/10/29 03:17:34;;;;;;;2.88;1.50;;;12.70;99.90;;;;;;5079275;28;20028;-49
2023/10/29 03:19:59;;;;;;;2.22;1.45;;;12.70;99.90;;;;;;5073642;28;20160;-45
2023/10/29 03:22:25;;;;;;;2.08;1.40;;;12.90;99.90;;;;;;5076765;28;20040;-46
2023/10/29 03:24:51;;;;;;;4.35;1.90;;;12.90;99.90;;;;;;5077854;28;20056;-49
2023/10/29 03:27:16;;;;;;;2.17;1.70;;;12.90;99.90;;;;;;5073535;28;20052;-47
2023/10/29 03:29:42;;;;;;;5.05;2.13;;;12.90;99.90;;;;;;5078091;28;20123;-47
2023/10/29 03:32:08;;;;;;;2.78;1.38;;;12.90;99.90;;;;;;5076362;28;20043;-47
2023/10/29 03:34:33;;;;;;;4.25;1.50;;;12.90;99.90;;;;;;5074110;28;20040;-48
2023/10/29 03:36:59;;;;;;;3.97;1.77;;;12.80;99.90;;;;;;5078497;28;20044;-45
2023/10/29 03:39:24;;;;;;;3.05;1.40;;;12.90;99.90;;;;;;5078379;28;20036;-46
2023/10/29 03:41:50;;;;;;;4.05;1.40;;;12.90;99.90;;;;;;5073018;28;20044;-47
2023/10/29 03:44:16;;;;;;;2.17;1.35;;;12.90;99.90;;;;;;5071090;28;20041;-50
2023/10/29 03:46:41;;;;;;;4.47;1.73;;;12.90;99.90;;;;;;5071898;28;20056;-47
2023/10/29 03:49:07;;;;;;;3.33;1.40;;;12.80;99.90;;;;;;5073093;28;20468;-45
2023/10/29 03:51:32;;;;;;;4.05;1.83;;;12.80;99.90;;;;;;5079507;28;20396;-48
2023/10/29 03:53:58;;;;;;;2.75;1.45;;;12.80;99.90;;;;;;5073579;28;20036;-48
2023/10/29 03:56:24;;;;;;;1.50;1.27;;;12.80;99.90;;;;;;5076407;28;20381;-46
2023/10/29 03:58:49;;;;;;;2.75;1.50;;;12.90;99.90;;;;;;5075094;28;20482;-45
2023/10/29 04:01:16;;;;;;;3.75;1.50;;;12.90;99.90;;;;;;5076042;28;20040;-46
2023/10/29 04:03:43;;;;;;;1.33;1.10;;;12.80;99.90;;;;;;5073682;28;20389;-45
2023/10/29 04:06:10;;;;;;;2.83;1.30;;;12.80;99.90;;;;;;5076583;28;20044;-48
2023/10/29 04:08:36;;;;;;;3.03;1.30;;;12.90;99.90;;;;;;5078419;28;20416;-48
2023/10/29 04:11:02;;;;;;;3.80;1.40;;;12.90;99.90;;;;;;5071234;28;20044;-45
2023/10/29 04:13:28;;;;;;;1.70;1.15;;;13.00;99.90;;;;;;5079562;28;20039;-46
2023/10/29 04:15:53;;;;;;;2.88;1.15;;;13.00;99.90;;;;;;5075360;28;20048;-49
2023/10/29 04:18:19;;;;;;;3.08;1.30;;;12.90;99.90;;;;;;5069984;28;20105;-47
2023/10/29 04:20:45;;;;;;;1.85;1.23;;;12.90;99.90;;;;;;5077409;28;20086;-46
2023/10/29 04:23:11;;;;;;;2.05;1.00;;;12.90;99.90;;;;;;5074515;28;20072;-45
2023/10/29 04:25:36;;;;;;;2.20;1.17;;;13.00;99.90;;;;;;5070610;28;20131;-45
2023/10/29 04:28:02;;;;;;;2.97;1.00;;;13.00;99.90;;;;;;5081583;28;20056;-47
2023/10/29 04:30:28;;;;;;;2.58;1.10;;;13.00;99.90;;;;;;5071346;28;20048;-46
2023/10/29 04:32:53;;;;;;;1.58;0.90;;;13.00;99.90;;;;;;5070989;28;20044;-45
2023/10/29 04:35:19;;;;;;;1.92;0.95;;;13.00;99.90;;;;;;5073085;28;20033;-46
2023/10/29 04:37:45;;;;;;;3.67;1.20;;;12.90;99.90;;;;;;5076455;28;20068;-45
2023/10/29 04:40:10;;;;;;;2.70;1.33;;;12.90;99.90;;;;;;5074855;28;22106;-48
2023/10/29 04:42:36;;;;;;;1.95;1.00;;;12.80;99.90;;;;;;5080218;28;20044;-46
2023/10/29 04:45:03;;;;;;;1.50;0.90;;;12.80;99.90;;;;;;5083014;28;20044;-46
2023/10/29 04:47:28;;;;;;;1.88;1.17;;;12.70;99.90;;;;;;5077718;28;20048;-45
2023/10/29 04:49:54;;;;;;;1.92;0.90;;;12.70;99.90;;;;;;5081424;28;20035;-46
2023/10/29 04:52:20;;;;;;;4.70;1.08;;;12.70;99.90;;;;;;5076971;28;20059;-49
2023/10/29 04:54:46;;;;;;;3.63;1.17;;;12.70;99.90;;;;;;5081092;28;20116;-45
2023/10/29 04:57:11;;;;;;;3.42;1.00;;;12.70;99.90;;;;;;5076469;28;20615;-45
2023/10/29 04:59:37;;;;;;;3.00;0.98;;;12.80;99.90;;;;;;5081509;28;20032;-46
2023/10/29 05:02:03;;;;;;;2.35;0.80;;;12.80;99.90;;;;;;5079984;28;20063;-46
2023/10/29 05:04:29;;;;;;;1.05;0.90;;;12.80;99.90;;;;;;5082170;28;20048;-45
2023/10/29 05:06:55;;;;;;;1.27;0.75;;;12.80;99.90;;;;;;5076558;28;20494;-49
2023/10/29 05:09:20;;;;;;;1.77;0.90;;;12.80;99.90;;;;;;5077609;28;20033;-48
2023/10/29 05:11:47;;;;;;;1.42;1.00;;;12.70;99.90;;;;;;5077080;28;20443;-45
2023/10/29 05:14:13;;;;;;;3.80;0.88;;;12.80;99.90;;;;;;5081249;28;20041;-48
2023/10/29 05:16:39;;;;;;;4.00;1.00;;;12.70;99.90;;;;;;5075131;28;20119;-48
2023/10/29 05:19:04;;;;;;;1.75;0.90;;;12.70;99.90;;;;;;5078632;28;20033;-46
2023/10/29 05:21:30;;;;;;;3.10;1.00;;;12.70;99.90;;;;;;5081545;28;20100;-47
2023/10/29 05:23:56;;;;;;;2.45;0.90;;;12.80;99.90;;;;;;5078018;28;20049;-46
2023/10/29 05:26:21;;;;;;;1.90;0.77;;;12.80;99.90;;;;;;5074866;28;20455;-48
2023/10/29 05:28:47;;;;;;;1.75;0.80;;;12.80;99.90;;;;;;5083717;28;20094;-45
2023/10/29 05:31:13;;;;;;;1.20;0.63;;;12.80;99.90;;;;;;5082729;28;20416;-46
2023/10/29 05:33:38;;;;;;;3.05;1.08;;;12.80;99.90;;;;;;5078555;28;20040;-46
2023/10/29 05:36:04;;;;;;;2.13;0.80;;;12.80;99.90;;;;;;5078649;28;20419;-46
2023/10/29 05:38:30;;;;;;;2.25;1.10;;;12.80;99.90;;;;;;5081272;28;20028;-47
2023/10/29 05:40:56;;;;;;;3.22;0.80;;;12.80;99.90;;;;;;5074163;28;20401;-49
2023/10/29 05:43:21;;;;;;;2.05;0.70;;;12.90;99.90;;;;;;5076154;28;20036;-46
2023/10/29 05:45:47;;;;;;;1.52;0.80;;;12.90;99.90;;;;;;5080854;28;20044;-46
2023/10/29 05:48:12;;;;;;;3.75;0.90;;;12.90;99.90;;;;;;5072638;28;20552;-45
2023/10/29 05:50:38;;;;;;;4.40;1.10;;;12.80;99.90;;;;;;5075430;28;20073;-46
2023/10/29 05:53:05;;;;;;;2.25;0.90;;;12.70;99.90;;;;;;5077166;28;20139;-45
2023/10/29 05:55:30;;;;;;;1.08;0.60;;;12.80;99.90;;;;;;5074198;28;20507;-48
2023/10/29 05:57:56;;;;;;;2.42;0.82;;;12.80;99.90;;;;;;5077481;28;20048;-46
2023/10/29 06:00:22;;;;;;;1.80;0.77;;;12.90;99.90;;;;;;5073436;28;20051;-46
2023/10/29 06:02:48;;;;;;;1.67;0.70;;;12.90;99.90;;;;;;5077373;28;20547;-46
2023/10/29 06:05:14;;;;;;;2.75;0.80;;;13.00;99.90;;;;;;5076925;28;20036;-46
2023/10/29 06:07:43;;;;;;;2.65;0.90;;;13.10;99.90;;;;;;5076413;28;20069;-47
2023/10/29 06:10:13;;;;;;;2.00;0.70;;;13.10;99.90;;;;;;5072179;28;20467;-46
2023/10/29 06:12:40;;;;;;;1.95;0.80;;;13.20;99.90;;;;;;5075188;28;20181;-47
2023/10/29 06:15:08;;;;;;;4.05;0.73;;;13.20;99.90;;;;;;5071823;28;20485;-46
2023/10/29 06:17:34;;;;;;;1.42;0.60;;;13.20;99.90;;;;;;5077645;28;20488;-45
2023/10/29 06:20:01;;;;;;;2.67;0.90;;;13.10;99.90;;;;;;5078111;28;20067;-46
2023/10/29 06:22:27;;;;;;;2.30;1.05;;;13.10;99.90;;;;;;5077096;28;20051;-47
2023/10/29 06:24:52;;;;;;;4.38;1.15;;;13.10;99.90;;;;;;5075290;28;20489;-48
2023/10/29 06:27:18;;;;;;;2.45;0.80;;;13.00;99.90;;;;;;5078705;28;20159;-48
2023/10/29 06:29:44;;;;;;;2.45;0.80;;;13.00;99.90;;;;;;5075580;28;20481;-47
2023/10/29 06:32:09;;;;;;;4.03;1.17;;;12.90;99.90;;;;;;5083690;28;20040;-49
2023/10/29 06:34:35;;;;;;;1.70;0.82;;;12.90;99.90;;;;;;5077398;28;20039;-46
2023/10/29 06:37:01;;;;;;;2.25;0.90;;;12.90;99.90;;;;;;5075746;28;20065;-47
2023/10/29 06:39:26;;;;;;;3.15;1.00;;;12.90;99.90;;;;;;5074807;28;20071;-46
2023/10/29 06:41:52;;;;;;;4.00;1.25;;;13.00;99.90;;;;;;5076313;28;20109;-50
2023/10/29 06:44:18;;;;;;;2.08;1.00;;;13.00;99.90;;;;;;5075879;28;20047;-45
2023/10/29 06:46:43;;;;;;;3.45;1.20;;;13.00;99.90;;;;;;5078214;28;20040;-47
2023/10/29 06:49:09;;;;;;;2.75;0.95;;;13.00;99.90;;;;;;5078218;28;20035;-47
2023/10/29 06:51:34;;;;;;;2.72;0.90;;;12.90;99.90;;;;;;5072443;28;20431;-48
2023/10/29 06:54:00;;;;;;;4.43;1.10;;;13.00;99.90;;;;;;5076665;28;20101;-46
2023/10/29 06:56:26;;;;;;;1.58;0.70;;;13.00;99.90;;;;;;5073983;28;20041;-47
2023/10/29 06:58:51;;;;;;;3.05;0.88;;;13.00;99.90;;;;;;5075514;28;20043;-47
2023/10/29 07:01:17;;;;;;;1.67;0.88;;;12.90;99.90;;;;;;5076145;28;20036;-45
2023/10/29 07:03:43;;;;;;;3.42;1.00;;;13.00;99.90;;;;;;5060401;28;20116;-47
2023/10/29 07:06:11;;;;;;;5.13;0.98;;;13.00;99.90;;;;;;5070947;28;20075;-47
2023/10/29 07:08:37;;;;;;;3.58;0.88;;;13.00;99.90;;;;;;5079868;28;20155;-48
2023/10/29 07:11:04;;;;;;;1.65;0.82;;;13.00;99.90;;;;;;5077818;28;20053;-47
2023/10/29 07:13:31;;;;;;;4.53;1.10;;;13.00;99.90;;;;;;5076627;28;20039;-46
2023/10/29 07:15:58;;;;;;;2.00;0.90;;;13.00;99.90;;;;;;5076514;28;20358;-46
2023/10/29 07:18:24;;;;;;;2.22;0.93;;;13.00;99.90;;;;;;5076340;28;20051;-46
2023/10/29 07:20:53;;;;;;;2.08;0.82;;;13.00;99.90;;;;;;5076577;28;20033;-46
2023/10/29 07:23:22;;;;;;;3.20;0.95;;;13.10;99.90;;;;;;5078339;28;20044;-46
2023/10/29 07:25:49;;;;;;;3.60;0.93;;;13.00;99.90;;;;;;5072907;28;20052;-46
2023/10/29 07:28:15;;;;;;;2.90;1.00;;;13.10;99.90;;;;;;5077188;28;20039;-46
2023/10/29 07:30:41;;;;;;;2.75;0.75;;;13.10;99.90;;;;;;5074242;28;20032;-45
2023/10/29 07:33:11;;;;;;;2.50;0.82;;;13.10;99.90;;;;;;5074312;28;20416;-49
2023/10/29 07:35:37;;;;;;;2.63;0.90;;;13.10;99.90;;;;;;5073313;28;20542;-46
2023/10/29 07:38:03;;;;;;;1.88;0.73;;;13.20;99.90;;;;;;5076211;28;20036;-48
2023/10/29 07:40:29;;;;;;;2.60;0.90;;;13.20;99.90;;;;;;5075848;28;20043;-48
2023/10/29 07:42:54;;;;;;;1.67;0.75;;;13.20;99.90;;;;;;5076399;28;20028;-46
2023/10/29 07:45:20;;;;;;;2.70;0.90;;;13.20;99.90;;;;;;5078914;28;20366;-49
2023/10/29 07:47:45;;;;;;;3.85;0.90;;;13.20;99.90;;;;;;5072501;28;20036;-48
2023/10/29 07:50:11;;;;;;;4.03;1.05;;;13.30;99.90;;;;;;5080052;28;20048;-46
2023/10/29 07:52:39;;;;;;;2.70;0.75;;;13.30;99.90;;;;;;5075921;28;20128;-46
2023/10/29 07:55:11;;;;;;;2.90;1.00;;;13.40;99.90;;;;;;5076767;28;20291;-48
2023/10/29 07:57:38;;;;;;;2.90;0.75;;;13.30;99.90;;;;;;5073372;28;20041;-46
2023/10/29 08:00:14;;;;;;;3.08;1.10;;;13.10;99.90;;;;;;5074887;28;20040;-45
2023/10/29 08:02:41;;;;;;;4.10;0.70;;;13.20;99.90;;;;;;5072439;28;20051;-47
2023/10/29 08:05:07;;;;;;;1.88;0.60;;;13.10;99.90;;;;;;5076740;28;20040;-46
2023/10/29 08:07:32;;;;;;;4.00;0.80;;;13.10;99.90;;;;;;5074955;28;20059;-47
2023/10/29 08:09:58;;;;;;;1.67;0.73;;;13.00;99.90;;;;;;5073711;28;20032;-47
2023/10/29 08:12:25;;;;;;;4.90;0.95;;;13.10;99.90;;;;;;5077181;28;20428;-46
2023/10/29 08:14:51;;;;;;;5.28;1.35;;;13.10;99.90;;;;;;5077880;28;20063;-45
2023/10/29 08:17:17;;;;;;;2.45;0.70;;;13.20;99.90;;;;;;5076195;28;20469;-47
2023/10/29 08:19:46;;;;;;;3.58;0.77;;;13.20;99.90;;;;;;5077706;28;20052;-49
2023/10/29 08:22:12;;;;;;;4.18;0.98;;;13.10;99.90;;;;;;5073526;28;20036;-46
2023/10/29 08:24:39;;;;;;;4.05;1.05;;;13.10;99.90;;;;;;5073601;28;20405;-48
2023/10/29 08:27:07;;;;;;;3.72;0.90;;;13.10;99.90;;;;;;5076013;28;20083;-48
2023/10/29 08:29:38;;;;;;;5.40;0.80;;;13.20;99.90;;;;;;5074627;28;20071;-47
2023/10/29 08:32:04;;;;;;;4.53;1.00;;;13.20;99.90;;;;;;5074323;28;20047;-46
2023/10/29 08:34:30;;;;;;;5.05;1.13;;;13.30;99.90;;;;;;5078855;28;20036;-46
2023/10/29 08:36:56;;;;;;;2.25;0.80;;;13.40;99.90;;;;;;5076029;28;20123;-45
2023/10/29 08:39:22;;;;;;;4.90;1.17;;;13.50;99.90;;;;;;5073307;28;20048;-49
2023/10/29 08:41:48;;;;;;;3.30;0.88;;;13.50;99.90;;;;;;5073757;28;20544;-46
2023/10/29 08:44:14;;;;;;;3.60;0.88;;;13.60;99.90;;;;;;5070667;28;20139;-46
2023/10/29 08:46:43;;;;;;;5.30;1.30;;;13.70;99.90;;;;;;5069880;28;20065;-47
2023/10/29 08:49:08;;;;;;;3.78;0.82;;;13.70;99.90;;;;;;5074866;28;20120;-47
2023/10/29 08:51:34;;;;;;;3.88;1.10;;;13.70;99.90;;;;;;5077862;28;20470;-45
2023/10/29 08:54:02;;;;;;;4.05;1.23;;;13.70;99.90;;;;;;5074620;28;20067;-46
2023/10/29 08:56:29;;;;;;;5.72;1.45;;;13.60;99.90;;;;;;5070206;28;20044;-46
2023/10/29 08:58:55;;;;;;;5.65;1.42;;;13.50;99.90;;;;;;5072998;28;20145;-46
2023/10/29 09:01:20;;;;;;;5.05;1.38;;;13.50;99.90;;;;;;5077186;28;20044;-45
2023/10/29 09:03:46;;;;;;;9.18;1.30;;;13.50;99.90;;;;;;5079059;28;20374;-46
2023/10/29 09:06:12;;;;;;;3.97;1.52;;;13.70;99.90;;;;;;5075035;28;20048;-48
2023/10/29 09:08:38;;;;;;;4.32;1.08;;;13.80;99.90;;;;;;5074342;28;20093;-47
2023/10/29 09:11:04;;;;;;;6.88;1.30;;;14.10;99.90;;;;;;5073083;28;20396;-47
2023/10/29 09:13:30;;;;;;;3.38;0.90;;;14.20;99.90;;;;;;5078136;28;20101;-47
2023/10/29 09:15:56;;;;;;;3.30;1.23;;;14.10;99.90;;;;;;5080004;28;20094;-46
2023/10/29 09:18:21;;;;;;;4.97;1.40;;;14.10;99.90;;;;;;5079834;28;20046;-48
2023/10/29 09:20:47;;;;;;;4.80;1.33;;;14.20;99.90;;;;;;5070741;28;20377;-49
2023/10/29 09:23:16;;;;;;;7.32;1.73;;;14.20;99.90;;;;;;5072694;28;20056;-46
2023/10/29 09:25:45;;;;;;;7.25;1.48;;;14.30;99.90;;;;;;5075685;28;20182;-46
2023/10/29 09:28:12;;;;;;;5.68;1.42;;;14.30;99.90;;;;;;5074764;28;20389;-46
2023/10/29 09:30:42;;;;;;;6.50;1.38;;;14.20;99.90;;;;;;5080587;28;20439;-47
2023/10/29 09:33:12;;;;;;;5.40;1.15;;;14.30;99.90;;;;;;5077179;28;20036;-45
2023/10/29 09:35:39;;;;;;;6.03;1.30;;;14.30;99.90;;;;;;5082340;28;20107;-47
2023/10/29 09:38:05;;;;;;;5.22;1.42;;;14.40;99.90;;;;;;5080656;28;20053;-51
2023/10/29 09:40:31;;;;;;;5.28;1.13;;;14.30;99.90;;;;;;5075651;28;20059;-46
2023/10/29 09:43:02;;;;;;;6.15;1.40;;;14.30;99.90;;;;;;5081360;28;20441;-49
2023/10/29 09:45:27;;;;;;;6.25;1.40;;;14.30;99.90;;;;;;5076340;28;20036;-49
2023/10/29 09:47:54;;;;;;;4.25;1.30;;;14.40;99.90;;;;;;5080015;28;20037;-46
2023/10/29 09:50:23;;;;;;;5.40;1.25;;;14.40;99.90;;;;;;5076947;28;20125;-46
2023/10/29 09:52:58;;;;;;;8.65;1.77;;;14.60;99.90;;;;;;5080297;28;20187;-46
2023/10/29 09:55:24;;;;;;;8.18;1.55;;;14.70;99.90;;;;;;5077097;28;20487;-46
2023/10/29 09:57:50;;;;;;;6.40;1.40;;;14.70;99.90;;;;;;5079652;28;20182;-47
2023/10/29 10:00:16;;;;;;;5.05;1.25;;;14.80;99.90;;;;;;5077179;28;20047;-47
2023/10/29 10:02:53;;;;;;;6.50;1.30;;;14.70;99.90;;;;;;5078564;28;20384;-47
2023/10/29 10:05:22;;;;;;;7.57;1.73;;;14.60;99.90;;;;;;5078024;28;20100;-47
2023/10/29 10:07:49;;;;;;;7.25;1.40;;;14.40;99.90;;;;;;5077157;28;20493;-47
2023/10/29 10:10:15;;;;;;;4.53;1.02;;;14.40;99.90;;;;;;5081972;28;20036;-46
2023/10/29 10:12:48;;;;;;;5.70;1.25;;;14.40;99.90;;;;;;5077162;28;20071;-47
2023/10/29 10:15:16;;;;;;;5.15;1.50;;;14.40;99.90;;;;;;5076670;28;20040;-44
2023/10/29 10:17:57;;;;;;;6.75;1.33;;;14.40;99.90;;;;;;5077055;28;20058;-44
2023/10/29 10:20:23;;;;;;;4.93;1.50;;;14.50;99.90;;;;;;5081873;28;20040;-44
2023/10/29 10:23:11;;;;;;;6.47;1.23;;;14.60;99.90;;;;;;5075251;28;20047;-47
2023/10/29 10:25:37;;;;;;;8.25;1.35;;;14.70;99.90;;;;;;5079117;28;20049;-46
2023/10/29 10:28:05;;;;;;;5.03;1.25;;;14.70;99.90;;;;;;5078007;28;20207;-47
2023/10/29 10:30:38;;;;;;;7.85;1.90;;;14.90;99.90;;;;;;5076502;28;20041;-47
2023/10/29 10:33:20;;;;;;;6.25;1.30;;;14.90;99.90;;;;;;5079297;28;20048;-48
2023/10/29 10:35:51;;;;;;;4.47;1.38;;;15.00;99.90;;;;;;5078439;28;20041;-50
2023/10/29 10:38:19;;;;;;;3.22;1.10;;;15.10;99.90;;;;;;5085892;28;20052;-46
2023/10/29 10:40:46;;;;;;;3.47;1.25;;;15.10;99.90;;;;;;5074571;28;20417;-46
2023/10/29 10:43:18;;;;;;;5.65;1.58;;;15.10;99.90;;;;;;5086705;28;20044;-48
2023/10/29 10:45:49;;;;;;;3.53;1.30;;;15.20;99.90;;;;;;5078099;28;20044;-46
2023/10/29 10:48:16;;;;;;;5.47;1.50;;;15.30;99.90;;;;;;5077391;28;20042;-50
2023/10/29 10:50:42;;;;;;;9.05;1.55;;;15.30;99.90;;;;;;5075817;28;20083;-46
2023/10/29 10:53:09;;;;;;;8.40;1.88;;;15.30;99.90;;;;;;5077854;28;20071;-49
2023/10/29 10:55:36;;;;;;;8.18;1.50;;;15.30;99.90;;;;;;5087454;28;20126;-50
2023/10/29 10:58:03;;;;;;;6.78;1.45;;;15.30;99.90;;;;;;5082794;28;20055;-47
2023/10/29 11:00:32;;;;;;;6.85;1.70;;;15.10;99.90;;;;;;5084991;28;20048;-49
2023/10/29 11:02:59;;;;;;;3.55;1.20;;;15.10;99.90;;;;;;5083894;28;20055;-47
2023/10/29 11:05:30;;;;;;;7.57;1.55;;;15.10;99.90;;;;;;5074663;28;20033;-47
2023/10/29 11:07:56;;;;;;;7.43;1.42;;;15.10;99.90;;;;;;5077675;28;20052;-47
2023/10/29 11:10:25;;;;;;;6.82;1.42;;;15.10;99.90;;;;;;5072746;28;20033;-48
2023/10/29 11:12:51;;;;;;;5.05;1.20;;;15.10;99.90;;;;;;5075683;28;20040;-47
2023/10/29 11:15:19;;;;;;;5.13;1.45;;;15.20;99.90;;;;;;5079183;28;20056;-50
2023/10/29 11:18:01;;;;;;;5.25;1.40;;;15.20;99.90;;;;;;5078159;28;20040;-47
2023/10/29 11:20:36;;;;;;;5.07;1.60;;;15.30;99.90;;;;;;5074154;28;20370;-46
2023/10/29 11:23:09;;;;;;;7.07;1.52;;;15.40;99.90;;;;;;5071761;28;20063;-45
2023/10/29 11:25:36;;;;;;;7.03;1.63;;;15.50;99.90;;;;;;5074277;28;20136;-48
2023/10/29 11:28:03;;;;;;;7.20;1.30;;;15.60;99.90;;;;;;5082874;28;20412;-46
2023/10/29 11:30:28;;;;;;;7.87;1.70;;;15.50;99.90;;;;;;5071300;28;20138;-48
2023/10/29 11:33:06;;;;;;;4.40;1.20;;;15.50;99.90;;;;;;5079296;28;20032;-48
2023/10/29 11:35:32;;;;;;;;;;;15.50;99.90;;;;;;5077230;28;20473;-46
2023/10/29 11:38:00;;;;;;;5.78;1.05;;;15.50;99.90;;;;;;5073476;28;19993;-49
2023/10/29 11:40:25;;;;;;;6.80;1.20;;;15.60;99.90;;;;;;5074084;28;20062;-47
2023/10/29 11:42:56;;;;;;;4.72;1.20;;;15.70;99.90;;;;;;5075526;28;20053;-47
2023/10/29 11:45:28;;;;;;;5.55;1.20;;;15.70;99.90;;;;;;5075677;28;20067;-46
2023/10/29 11:48:12;;;;;;;6.05;1.50;;;15.70;99.90;;;;;;5080164;28;20036;-46
2023/10/29 11:50:40;;;;;;;5.43;1.50;;;15.70;99.90;;;;;;5075448;28;20140;-47
2023/10/29 11:53:06;;;;;;;6.35;1.35;;;15.70;99.90;;;;;;5070847;28;20040;-47
2023/10/29 11:55:41;;;;;;;4.07;1.35;;;15.80;99.90;;;;;;5073928;28;20405;-47
2023/10/29 11:58:07;;;;;;;6.78;1.35;;;15.70;99.90;;;;;;5075864;28;20494;-47
2023/10/29 12:00:40;;;;;;;4.32;1.10;;;15.60;99.90;;;;;;5071554;28;20043;-46
2023/10/29 12:03:08;;;;;;;6.65;1.48;;;15.60;99.90;;;;;;5071731;28;20190;-48
2023/10/29 12:05:34;;;;;;;7.28;1.23;;;15.60;99.90;;;;;;5079992;28;20451;-49
2023/10/29 12:08:01;;;;;;;6.20;1.35;;;15.60;99.90;;;;;;5076598;28;20090;-47
2023/10/29 12:10:26;;;;;;;5.40;1.42;;;15.60;99.90;;;;;;5072322;28;20219;-46
2023/10/29 12:12:53;;;;;;;4.97;1.52;;;15.50;99.90;;;;;;5075781;28;20234;-46
2023/10/29 12:15:19;;;;;;;6.75;1.30;;;15.50;99.90;;;;;;5074542;28;20486;-46
2023/10/29 12:17:46;;;;;;;5.57;1.25;;;15.40;99.90;;;;;;5080684;28;20509;-46
2023/10/29 12:20:25;;;;;;;5.85;1.60;;;15.40;99.90;;;;;;5072529;28;20048;-47
2023/10/29 12:22:56;;;;;;;6.00;1.55;;;15.30;99.90;;;;;;5070242;28;20478;-46
2023/10/29 12:25:23;;;;;;;7.07;1.63;;;15.20;99.90;;;;;;5071221;28;20413;-46
2023/10/29 12:27:49;;;;;;;6.22;1.52;;;15.20;99.90;;;;;;5071452;28;20048;-49
2023/10/29 12:30:39;;;;;;;6.95;1.50;;;15.20;99.90;;;;;;5072140;28;20098;-47
2023/10/29 12:33:25;;;;;;;5.90;1.45;;;15.20;99.90;;;;;;5084071;28;20051;-49
2023/10/29 12:35:56;;;;;;;6.75;1.60;;;15.20;99.90;;;;;;5073966;28;20041;-49
2023/10/29 12:38:23;;;;;;;6.68;1.35;;;15.10;99.90;;;;;;5072286;28;20041;-48
2023/10/29 12:41:02;;;;;;;6.57;1.40;;;15.10;99.90;;;;;;5073650;28;20080;-47
2023/10/29 12:43:35;;;;;;;7.43;1.70;;;15.10;99.90;;;;;;5081549;28;20160;-46
2023/10/29 12:46:02;;;;;;;5.65;1.40;;;15.10;99.90;;;;;;5091570;28;20123;-47
2023/10/29 12:48:27;;;;;;;5.63;1.38;;;15.10;99.90;;;;;;5071733;28;20037;-46